createdAt,value
2023-05-21T00:01:07.105Z,15.60
2023-05-21T00:03:36.153Z,15.50
2023-05-21T00:06:03.831Z,15.50
2023-05-21T00:08:31.037Z,15.50
2023-05-21T00:10:57.963Z,15.50
2023-05-21T00:13:24.702Z,15.50
2023-05-21T00:15:51.446Z,15.50
2023-05-21T00:18:18.316Z,15.50
2023-05-21T00:20:45.699Z,15.50
2023-05-21T00:23:12.421Z,15.40
2023-05-21T00:25:39.144Z,15.40
2023-05-21T00:28:05.861Z,15.30
2023-05-21T00:30:32.539Z,15.30
2023-05-21T00:33:02.455Z,15.30
2023-05-21T00:35:29.603Z,15.30
2023-05-21T00:37:56.367Z,15.40
2023-05-21T00:40:23.421Z,15.30
2023-05-21T00:42:50.112Z,15.30
2023-05-21T00:45:16.954Z,15.30
2023-05-21T00:47:44.757Z,15.30
2023-05-21T00:50:12.145Z,15.30
2023-05-21T00:52:41.941Z,15.30
2023-05-21T00:55:09.980Z,15.30
2023-05-21T00:57:37.264Z,15.30
2023-05-21T01:00:08.955Z,15.30
2023-05-21T01:02:37.479Z,15.30
2023-05-21T01:05:05.995Z,15.30
2023-05-21T01:07:34.841Z,15.30
2023-05-21T01:10:07.534Z,15.30
2023-05-21T01:12:35.804Z,15.30
2023-05-21T01:15:04.076Z,15.30
2023-05-21T01:17:31.871Z,15.20
2023-05-21T01:19:59.384Z,15.20
2023-05-21T01:22:28.556Z,15.20
2023-05-21T01:24:55.607Z,15.20
2023-05-21T01:27:22.795Z,15.20
2023-05-21T01:29:49.561Z,15.20
2023-05-21T01:32:49.348Z,15.10
2023-05-21T01:35:27.845Z,15.10
2023-05-21T01:38:07.573Z,15.10
2023-05-21T01:41:00.268Z,15.10
2023-05-21T01:43:29.362Z,15.00
2023-05-21T01:45:57.291Z,15.00
2023-05-21T01:48:27.746Z,15.00
2023-05-21T01:50:57.836Z,15.00
2023-05-21T01:53:25.119Z,15.10
2023-05-21T01:55:52.227Z,15.10
2023-05-21T01:58:19.777Z,15.00
2023-05-21T02:00:46.781Z,15.10
2023-05-21T02:03:17.577Z,15.00
2023-05-21T02:05:44.596Z,15.00
2023-05-21T02:08:12.934Z,14.90
2023-05-21T02:10:39.961Z,15.10
2023-05-21T02:13:06.856Z,15.00
2023-05-21T02:15:36.975Z,15.10
2023-05-21T02:18:04.343Z,15.00
2023-05-21T02:20:31.641Z,14.90
2023-05-21T02:22:58.342Z,14.90
2023-05-21T02:25:25.058Z,14.90
2023-05-21T02:27:56.870Z,14.90
2023-05-21T02:30:23.855Z,14.90
2023-05-21T02:32:50.771Z,14.90
2023-05-21T02:35:17.829Z,14.90
2023-05-21T02:37:44.722Z,14.90
2023-05-21T02:40:12.225Z,14.90
2023-05-21T02:42:40.364Z,14.90
2023-05-21T02:45:12.098Z,14.90
2023-05-21T02:47:39.230Z,14.90
2023-05-21T02:50:07.625Z,14.90
2023-05-21T02:52:34.398Z,14.90
2023-05-21T02:55:01.191Z,14.90
2023-05-21T02:57:27.939Z,14.90
2023-05-21T02:59:54.699Z,14.90
2023-05-21T03:02:21.496Z,14.80
2023-05-21T03:04:48.905Z,14.90
2023-05-21T03:07:19.131Z,14.90
2023-05-21T03:09:46.364Z,14.90
2023-05-21T03:12:13.531Z,14.90
2023-05-21T03:14:40.429Z,14.90
2023-05-21T03:17:07.709Z,14.90
2023-05-21T03:19:36.034Z,14.90
2023-05-21T03:22:03.837Z,14.90
2023-05-21T03:24:30.831Z,14.90
2023-05-21T03:26:57.640Z,14.90
2023-05-21T03:29:24.318Z,14.90
2023-05-21T03:31:54.010Z,14.90
2023-05-21T03:34:21.173Z,14.90
2023-05-21T03:36:47.908Z,14.90
2023-05-21T03:39:14.939Z,14.80
2023-05-21T03:41:41.777Z,14.80
2023-05-21T03:44:08.794Z,14.80
2023-05-21T03:46:35.826Z,14.80
2023-05-21T03:49:02.774Z,14.80
2023-05-21T03:51:32.671Z,14.70
2023-05-21T03:53:59.770Z,14.70
2023-05-21T03:56:26.928Z,14.80
2023-05-21T03:58:53.719Z,14.80
2023-05-21T04:01:20.524Z,14.80
2023-05-21T04:03:47.427Z,14.80
2023-05-21T04:06:14.298Z,14.80
2023-05-21T04:08:41.147Z,14.80
2023-05-21T04:11:08.006Z,14.80
2023-05-21T04:13:34.682Z,14.80
2023-05-21T04:16:01.417Z,14.80
2023-05-21T04:18:28.306Z,14.80
2023-05-21T04:20:55.118Z,14.80
2023-05-21T04:23:23.806Z,14.80
2023-05-21T04:25:51.177Z,14.70
2023-05-21T04:28:20.228Z,14.80
2023-05-21T04:30:50.177Z,14.80
2023-05-21T04:33:18.207Z,14.70
2023-05-21T04:35:50.087Z,14.70
2023-05-21T04:38:19.585Z,14.70
2023-05-21T04:40:52.687Z,14.80
2023-05-21T04:43:25.562Z,14.80
2023-05-21T04:45:54.811Z,14.80
2023-05-21T04:48:26.855Z,14.90
2023-05-21T04:50:54.063Z,14.90
2023-05-21T04:53:20.905Z,15.00
2023-05-21T04:55:48.088Z,14.90
2023-05-21T04:58:17.696Z,15.00
2023-05-21T05:00:46.705Z,15.00
2023-05-21T05:03:13.873Z,15.00
2023-05-21T05:05:40.795Z,15.10
2023-05-21T05:08:08.551Z,15.10
2023-05-21T05:10:35.820Z,15.10
2023-05-21T05:13:02.511Z,15.10
2023-05-21T05:15:29.213Z,15.20
2023-05-21T05:17:56.660Z,15.20
2023-05-21T05:20:23.424Z,15.20
2023-05-21T05:22:50.218Z,15.20
2023-05-21T05:25:16.971Z,15.20
2023-05-21T05:27:43.973Z,15.30
2023-05-21T05:30:11.229Z,15.30
2023-05-21T05:32:38.135Z,15.40
2023-05-21T05:35:08.466Z,15.50
2023-05-21T05:37:35.208Z,15.50
2023-05-21T05:40:01.896Z,15.60
2023-05-21T05:42:28.629Z,15.60
2023-05-21T05:44:55.905Z,15.70
2023-05-21T05:47:22.820Z,15.70
2023-05-21T05:49:49.514Z,15.70
2023-05-21T05:52:16.281Z,15.80
2023-05-21T05:54:43.044Z,15.80
2023-05-21T05:57:09.820Z,15.90
2023-05-21T05:59:36.753Z,15.90
2023-05-21T06:02:03.503Z,15.90
2023-05-21T06:04:30.319Z,15.90
2023-05-21T06:07:00.632Z,15.90
2023-05-21T06:09:27.433Z,15.90
2023-05-21T06:11:54.425Z,15.90
2023-05-21T06:14:21.172Z,15.80
2023-05-21T06:16:47.933Z,15.90
2023-05-21T06:19:18.087Z,15.90
2023-05-21T06:21:44.962Z,16.00
2023-05-21T06:24:11.802Z,16.00
2023-05-21T06:26:38.639Z,16.00
2023-05-21T06:29:05.664Z,16.20
2023-05-21T06:31:33.307Z,16.10
2023-05-21T06:34:01.155Z,16.10
2023-05-21T06:36:30.140Z,16.10
2023-05-21T06:38:57.364Z,16.30
2023-05-21T06:41:24.427Z,16.20
2023-05-21T06:43:51.436Z,16.20
2023-05-21T06:46:18.390Z,16.30
2023-05-21T06:48:46.387Z,16.30
2023-05-21T06:51:13.591Z,16.30
2023-05-21T06:53:40.583Z,16.40
2023-05-21T06:56:07.701Z,16.50
2023-05-21T06:58:34.441Z,16.50
2023-05-21T07:01:01.740Z,16.60
2023-05-21T07:03:28.673Z,16.70
2023-05-21T07:05:55.979Z,16.60
2023-05-21T07:08:22.802Z,16.60
2023-05-21T07:10:50.032Z,16.60
2023-05-21T07:13:16.752Z,16.70
2023-05-21T07:15:43.484Z,16.70
2023-05-21T07:18:10.201Z,16.70
2023-05-21T07:20:37.002Z,16.80
2023-05-21T07:23:03.759Z,16.80
2023-05-21T07:25:30.871Z,16.90
2023-05-21T07:27:57.839Z,17.00
2023-05-21T07:30:24.662Z,17.00
2023-05-21T07:32:51.516Z,17.00
2023-05-21T07:35:19.138Z,17.10
2023-05-21T07:37:46.830Z,17.20
2023-05-21T07:40:14.013Z,17.20
2023-05-21T07:42:41.101Z,17.30
2023-05-21T07:45:08.362Z,17.40
2023-05-21T07:47:35.172Z,17.50
2023-05-21T07:50:01.980Z,17.60
2023-05-21T07:52:28.723Z,17.90
2023-05-21T07:54:55.550Z,18.20
2023-05-21T07:57:23.257Z,18.50
2023-05-21T07:59:49.998Z,18.80
2023-05-21T08:02:17.092Z,19.10
2023-05-21T08:04:44.463Z,19.40
2023-05-21T08:07:11.330Z,19.60
2023-05-21T08:09:38.097Z,19.80
2023-05-21T08:12:05.263Z,19.90
2023-05-21T08:14:32.084Z,20.20
2023-05-21T08:16:58.756Z,20.40
2023-05-21T08:19:25.860Z,20.50
2023-05-21T08:21:53.171Z,20.40
2023-05-21T08:24:20.072Z,20.40
2023-05-21T08:26:47.513Z,20.50
2023-05-21T08:29:14.376Z,20.70
2023-05-21T08:31:41.626Z,20.90
2023-05-21T08:34:08.335Z,21.10
2023-05-21T08:36:35.096Z,21.30
2023-05-21T08:39:01.805Z,21.30
2023-05-21T08:41:31.327Z,21.30
2023-05-21T08:44:02.165Z,21.70
2023-05-21T08:46:34.453Z,21.90
2023-05-21T08:49:02.903Z,22.20
2023-05-21T08:51:30.893Z,22.20
2023-05-21T08:53:59.653Z,22.50
2023-05-21T08:56:27.244Z,22.60
2023-05-21T08:58:54.054Z,22.60
2023-05-21T09:01:24.732Z,22.80
2023-05-21T09:04:01.824Z,23.20
2023-05-21T09:06:35.526Z,23.50
2023-05-21T09:09:18.750Z,23.60
2023-05-21T09:11:47.374Z,23.90
2023-05-21T09:14:15.653Z,23.90
2023-05-21T09:16:42.866Z,24.00
2023-05-21T09:19:09.614Z,23.80
2023-05-21T09:21:36.839Z,23.70
2023-05-21T09:24:55.432Z,23.70
2023-05-21T09:27:20.127Z,23.60
2023-05-21T09:29:46.817Z,23.50
2023-05-21T09:32:13.580Z,23.50
2023-05-21T09:34:41.239Z,23.40
2023-05-21T09:37:20.173Z,23.40
2023-05-21T09:39:54.146Z,23.40
2023-05-21T09:42:21.987Z,23.30
2023-05-21T09:44:48.925Z,23.20
2023-05-21T09:47:25.578Z,23.40
2023-05-21T09:49:52.511Z,23.50
2023-05-21T09:52:26.374Z,23.60
2023-05-21T09:54:53.402Z,23.30
2023-05-21T09:57:36.414Z,23.20
2023-05-21T10:00:03.899Z,23.30
2023-05-21T10:02:32.636Z,23.30
2023-05-21T10:05:00.603Z,23.30
2023-05-21T10:07:27.667Z,23.30
2023-05-21T10:09:56.729Z,23.30
2023-05-21T10:12:27.465Z,23.40
2023-05-21T10:15:08.800Z,23.40
2023-05-21T10:17:36.556Z,23.40
2023-05-21T10:20:05.290Z,23.40
2023-05-21T10:22:32.426Z,23.20
2023-05-21T10:25:01.048Z,23.20
2023-05-21T10:27:32.426Z,23.20
2023-05-21T10:30:00.053Z,23.30
2023-05-21T10:32:27.539Z,23.30
2023-05-21T10:34:54.894Z,23.30
2023-05-21T10:37:31.919Z,23.40
2023-05-21T10:40:00.123Z,23.40
2023-05-21T10:42:30.080Z,23.40
2023-05-21T10:45:23.676Z,23.60
2023-05-21T10:47:56.436Z,23.50
2023-05-21T10:50:48.294Z,23.60
2023-05-21T10:53:33.602Z,23.60
2023-05-21T10:56:29.941Z,23.50
2023-05-21T10:59:47.853Z,23.60
2023-05-21T11:02:19.567Z,23.60
2023-05-21T11:04:49.436Z,23.50
2023-05-21T11:07:24.724Z,23.50
2023-05-21T11:09:51.627Z,23.40
2023-05-21T11:12:21.178Z,23.40
2023-05-21T11:14:58.497Z,23.50
2023-05-21T11:17:44.609Z,23.80
2023-05-21T11:20:14.395Z,23.90
2023-05-21T11:22:41.338Z,23.90
2023-05-21T11:25:10.390Z,24.00
2023-05-21T11:27:48.020Z,23.90
2023-05-21T11:30:17.304Z,23.80
2023-05-21T11:33:10.944Z,23.70
2023-05-21T11:35:50.359Z,23.70
2023-05-21T11:38:20.276Z,23.90
2023-05-21T11:40:55.368Z,24.10
2023-05-21T11:43:23.589Z,24.30
2023-05-21T11:45:55.711Z,24.40
2023-05-21T11:48:27.385Z,24.50
2023-05-21T11:50:58.779Z,24.60
2023-05-21T11:53:27.833Z,24.50
2023-05-21T11:55:57.806Z,24.20
2023-05-21T11:58:31.531Z,24.20
2023-05-21T12:01:01.687Z,24.00
2023-05-21T12:03:30.525Z,23.70
2023-05-21T12:06:06.316Z,23.60
2023-05-21T12:08:33.233Z,23.70
2023-05-21T12:11:06.064Z,24.10
2023-05-21T12:13:34.128Z,24.40
2023-05-21T12:16:04.002Z,24.50
2023-05-21T12:18:32.757Z,24.70
2023-05-21T12:21:00.668Z,24.70
2023-05-21T12:23:27.451Z,24.70
2023-05-21T12:25:54.608Z,24.80
2023-05-21T12:28:22.922Z,24.50
2023-05-21T12:30:49.794Z,24.60
2023-05-21T12:33:18.021Z,24.90
2023-05-21T12:35:50.126Z,25.20
2023-05-21T12:38:17.210Z,25.40
2023-05-21T12:40:46.818Z,25.60
2023-05-21T12:43:13.848Z,25.60
2023-05-21T12:45:41.199Z,25.60
2023-05-21T12:48:08.392Z,25.60
2023-05-21T12:50:38.874Z,25.60
2023-05-21T12:53:11.135Z,25.70
2023-05-21T12:55:38.042Z,25.80
2023-05-21T12:58:08.503Z,25.70
2023-05-21T13:00:36.176Z,25.70
2023-05-21T13:03:06.137Z,25.90
2023-05-21T13:05:33.275Z,26.00
2023-05-21T13:08:00.244Z,26.00
2023-05-21T13:10:27.026Z,26.20
2023-05-21T13:12:54.091Z,26.30
2023-05-21T13:15:21.093Z,26.30
2023-05-21T13:17:49.974Z,26.10
2023-05-21T13:20:21.537Z,26.00
2023-05-21T13:22:50.637Z,25.90
2023-05-21T13:25:25.035Z,25.80
2023-05-21T13:27:53.081Z,25.60
2023-05-21T13:30:21.165Z,25.50
2023-05-21T13:32:48.558Z,25.40
2023-05-21T13:35:16.785Z,25.40
2023-05-21T13:37:44.495Z,25.60
2023-05-21T13:40:14.507Z,25.60
2023-05-21T13:42:41.499Z,25.80
2023-05-21T13:45:10.756Z,25.90
2023-05-21T13:47:40.267Z,26.00
2023-05-21T13:50:08.409Z,26.30
2023-05-21T13:52:35.310Z,26.20
2023-05-21T13:55:02.104Z,26.30
2023-05-21T13:57:30.819Z,26.20
2023-05-21T13:59:58.541Z,26.40
2023-05-21T14:02:26.038Z,26.40
2023-05-21T14:04:53.042Z,26.60
2023-05-21T14:07:19.756Z,26.80
2023-05-21T14:09:47.632Z,26.90
2023-05-21T14:12:14.357Z,27.00
2023-05-21T14:14:41.532Z,27.00
2023-05-21T14:17:08.288Z,26.90
2023-05-21T14:19:35.032Z,26.90
2023-05-21T14:22:01.844Z,26.80
2023-05-21T14:24:28.552Z,26.80
2023-05-21T14:26:55.351Z,26.80
2023-05-21T14:29:22.057Z,26.80
2023-05-21T14:31:48.848Z,26.90
2023-05-21T14:34:17.889Z,27.00
2023-05-21T14:36:44.678Z,27.10
2023-05-21T14:39:17.582Z,27.20
2023-05-21T14:41:47.345Z,27.30
2023-05-21T14:44:14.164Z,27.30
2023-05-21T14:46:47.110Z,27.30
2023-05-21T14:49:14.580Z,27.30
2023-05-21T14:51:42.523Z,27.30
2023-05-21T14:54:09.405Z,27.20
2023-05-21T14:56:36.563Z,27.20
2023-05-21T14:59:03.252Z,27.20
2023-05-21T15:01:30.229Z,27.10
2023-05-21T15:03:58.574Z,27.10
2023-05-21T15:06:25.547Z,27.10
2023-05-21T15:08:53.274Z,27.10
2023-05-21T15:11:20.096Z,27.10
2023-05-21T15:13:46.780Z,27.00
2023-05-21T15:16:13.558Z,27.10
2023-05-21T15:18:40.356Z,27.00
2023-05-21T15:21:07.182Z,27.20
2023-05-21T15:23:33.937Z,27.00
2023-05-21T15:26:00.680Z,27.00
2023-05-21T15:28:27.450Z,27.00
2023-05-21T15:30:54.202Z,27.10
2023-05-21T15:33:21.127Z,27.10
2023-05-21T15:35:48.090Z,27.10
2023-05-21T15:38:40.269Z,27.00
2023-05-21T15:41:10.098Z,26.90
2023-05-21T15:43:37.036Z,26.90
2023-05-21T15:46:07.099Z,26.90
2023-05-21T15:48:33.945Z,27.00
2023-05-21T15:51:00.767Z,27.00
2023-05-21T15:53:27.695Z,26.90
2023-05-21T15:55:54.468Z,26.90
2023-05-21T15:58:22.835Z,26.90
2023-05-21T16:00:49.603Z,26.90
2023-05-21T16:03:16.513Z,26.90
2023-05-21T16:05:43.308Z,26.90
2023-05-21T16:08:13.203Z,26.80
2023-05-21T16:10:40.178Z,26.80
2023-05-21T16:13:06.985Z,26.70
2023-05-21T16:15:33.901Z,26.60
2023-05-21T16:18:02.971Z,26.60
2023-05-21T16:20:30.838Z,26.60
2023-05-21T16:22:57.756Z,26.60
2023-05-21T16:25:24.675Z,26.60
2023-05-21T16:27:51.562Z,26.50
2023-05-21T16:30:18.362Z,26.60
2023-05-21T16:32:45.455Z,26.70
2023-05-21T16:35:15.005Z,26.60
2023-05-21T16:37:41.700Z,26.60
2023-05-21T16:40:09.128Z,26.50
2023-05-21T16:42:35.860Z,26.50
2023-05-21T16:45:02.584Z,26.50
2023-05-21T16:47:29.454Z,26.50
2023-05-21T16:49:56.417Z,26.50
2023-05-21T16:52:23.978Z,26.60
2023-05-21T16:54:50.767Z,26.60
2023-05-21T16:57:17.635Z,26.60
2023-05-21T16:59:44.590Z,26.50
2023-05-21T17:02:13.409Z,26.60
2023-05-21T17:04:40.374Z,26.50
2023-05-21T17:07:07.278Z,26.50
2023-05-21T17:09:34.152Z,26.50
2023-05-21T17:12:01.306Z,26.50
2023-05-21T17:14:34.470Z,26.60
2023-05-21T17:17:02.393Z,26.50
2023-05-21T17:19:29.186Z,26.50
2023-05-21T17:21:56.356Z,26.50
2023-05-21T17:24:23.132Z,26.50
2023-05-21T17:26:50.046Z,26.50
2023-05-21T17:29:16.868Z,26.40
2023-05-21T17:31:43.696Z,26.30
2023-05-21T17:34:10.756Z,26.30
2023-05-21T17:36:37.527Z,26.30
2023-05-21T17:39:04.310Z,26.30
2023-05-21T17:41:31.100Z,26.30
2023-05-21T17:43:57.990Z,26.20
2023-05-21T17:46:24.816Z,26.20
2023-05-21T17:48:51.631Z,26.10
2023-05-21T17:51:18.468Z,26.10
2023-05-21T17:53:45.328Z,26.00
2023-05-21T17:56:12.119Z,26.00
2023-05-21T17:58:38.856Z,25.90
2023-05-21T18:01:05.796Z,25.90
2023-05-21T18:03:32.693Z,25.80
2023-05-21T18:06:02.183Z,25.90
2023-05-21T18:08:29.083Z,25.80
2023-05-21T18:10:55.932Z,25.70
2023-05-21T18:13:22.766Z,25.70
2023-05-21T18:15:49.706Z,25.60
2023-05-21T18:18:19.981Z,25.50
2023-05-21T18:20:48.373Z,25.40
2023-05-21T18:23:15.163Z,25.40
2023-05-21T18:25:42.004Z,25.30
2023-05-21T18:28:09.746Z,25.20
2023-05-21T18:30:36.850Z,25.10
2023-05-21T18:33:04.179Z,25.00
2023-05-21T18:35:31.210Z,24.70
2023-05-21T18:38:00.971Z,24.70
2023-05-21T18:40:30.698Z,24.60
2023-05-21T18:42:57.792Z,24.50
2023-05-21T18:45:24.761Z,24.40
2023-05-21T18:47:51.821Z,24.30
2023-05-21T18:50:19.505Z,24.20
2023-05-21T18:52:46.819Z,24.20
2023-05-21T18:55:14.485Z,24.10
2023-05-21T18:57:41.262Z,24.10
2023-05-21T19:00:09.784Z,23.90
2023-05-21T19:02:37.380Z,23.90
2023-05-21T19:05:04.528Z,23.90
2023-05-21T19:07:31.354Z,23.80
2023-05-21T19:10:00.089Z,23.80
2023-05-21T19:12:38.794Z,23.70
2023-05-21T19:15:06.601Z,23.60
2023-05-21T19:17:35.083Z,23.50
2023-05-21T19:20:05.128Z,23.50
2023-05-21T19:22:32.190Z,23.40
2023-05-21T19:24:59.401Z,23.30
2023-05-21T19:27:26.299Z,23.30
2023-05-21T19:29:54.854Z,23.20
2023-05-21T19:32:23.672Z,23.10
2023-05-21T19:34:51.620Z,23.00
2023-05-21T19:37:18.615Z,22.90
2023-05-21T19:39:50.376Z,22.80
2023-05-21T19:42:17.908Z,22.70
2023-05-21T19:44:44.737Z,22.60
2023-05-21T19:47:11.527Z,22.60
2023-05-21T19:49:38.509Z,22.50
2023-05-21T19:52:05.788Z,22.50
2023-05-21T19:54:32.546Z,22.40
2023-05-21T19:56:59.393Z,22.30
2023-05-21T19:59:26.366Z,22.20
2023-05-21T20:01:53.330Z,22.20
2023-05-21T20:04:20.264Z,22.10
2023-05-21T20:06:47.144Z,22.00
2023-05-21T20:09:13.989Z,21.90
2023-05-21T20:11:48.203Z,21.80
2023-05-21T20:14:14.984Z,21.80
2023-05-21T20:16:42.514Z,21.70
2023-05-21T20:19:10.912Z,21.60
2023-05-21T20:21:40.311Z,21.60
2023-05-21T20:24:09.753Z,21.60
2023-05-21T20:26:36.629Z,21.50
2023-05-21T20:29:08.853Z,21.40
2023-05-21T20:31:35.902Z,21.40
2023-05-21T20:34:07.680Z,21.30
2023-05-21T20:36:35.789Z,21.30
2023-05-21T20:39:03.176Z,21.30
2023-05-21T20:41:37.812Z,21.30
2023-05-21T20:44:06.070Z,21.10
2023-05-21T20:46:34.192Z,20.90
2023-05-21T20:49:01.086Z,20.90
2023-05-21T20:51:27.922Z,20.80
2023-05-21T20:53:54.816Z,20.70
2023-05-21T20:56:29.820Z,20.70
2023-05-21T20:59:00.982Z,20.50
2023-05-21T21:01:31.063Z,20.40
2023-05-21T21:03:58.036Z,20.30
2023-05-21T21:06:26.339Z,20.20
2023-05-21T21:08:56.036Z,20.10
2023-05-21T21:11:26.672Z,20.00
2023-05-21T21:13:53.591Z,20.00
2023-05-21T21:16:20.458Z,19.90
2023-05-21T21:18:47.336Z,19.80
2023-05-21T21:21:14.197Z,19.70
2023-05-21T21:23:41.002Z,19.70
2023-05-21T21:26:07.735Z,19.70
2023-05-21T21:28:34.549Z,19.60
2023-05-21T21:31:01.322Z,19.50
2023-05-21T21:33:28.438Z,19.50
2023-05-21T21:35:55.455Z,19.50
2023-05-21T21:38:25.674Z,19.50
2023-05-21T21:40:54.411Z,19.50
2023-05-21T21:43:21.311Z,19.40
2023-05-21T21:45:48.146Z,19.40
2023-05-21T21:48:16.520Z,19.40
2023-05-21T21:50:43.325Z,19.40
2023-05-21T21:53:12.681Z,19.40
2023-05-21T21:55:39.515Z,19.40
2023-05-21T21:58:07.074Z,19.30
2023-05-21T22:00:33.870Z,19.30
2023-05-21T22:03:00.624Z,19.20
2023-05-21T22:05:30.651Z,19.30
2023-05-21T22:07:57.391Z,19.30
2023-05-21T22:10:24.092Z,19.30
2023-05-21T22:12:51.051Z,19.30
2023-05-21T22:15:28.602Z,19.30
2023-05-21T22:17:55.681Z,19.30
2023-05-21T22:20:22.657Z,19.30
2023-05-21T22:22:49.843Z,19.30
2023-05-21T22:25:16.642Z,19.20
2023-05-21T22:27:43.801Z,19.40
2023-05-21T22:30:11.061Z,19.40
2023-05-21T22:32:37.935Z,19.40
2023-05-21T22:35:05.715Z,19.40
2023-05-21T22:37:32.553Z,19.40
2023-05-21T22:39:59.250Z,19.40
2023-05-21T22:42:26.355Z,19.50
2023-05-21T22:44:53.068Z,19.40
2023-05-21T22:47:24.096Z,19.40
2023-05-21T22:49:53.195Z,19.40
2023-05-21T22:52:21.900Z,19.40
2023-05-21T22:54:49.200Z,19.40
2023-05-21T22:57:15.941Z,19.40
2023-05-21T22:59:42.731Z,19.40
2023-05-21T23:02:09.915Z,19.40
2023-05-21T23:04:43.888Z,19.40
2023-05-21T23:07:11.802Z,19.40
2023-05-21T23:09:38.594Z,19.40
2023-05-21T23:12:05.939Z,19.30
2023-05-21T23:14:32.707Z,19.40
2023-05-21T23:17:02.287Z,19.30
2023-05-21T23:19:29.563Z,19.40
2023-05-21T23:21:56.836Z,19.30
2023-05-21T23:24:23.576Z,19.30
2023-05-21T23:26:50.366Z,19.20
2023-05-21T23:29:17.468Z,19.20
2023-05-21T23:31:44.267Z,19.20
2023-05-21T23:34:11.255Z,19.20
2023-05-21T23:36:37.935Z,19.20
2023-05-21T23:39:04.754Z,19.20
2023-05-21T23:41:31.553Z,19.30
2023-05-21T23:43:58.344Z,19.20
2023-05-21T23:46:25.131Z,19.20
2023-05-21T23:48:51.862Z,19.20
2023-05-21T23:51:19.277Z,19.20
2023-05-21T23:53:46.194Z,19.30
2023-05-21T23:56:12.929Z,19.30
2023-05-21T23:58:39.649Z,19.20
